Terminal Aerodrome Forecast
Issued by NWS

Home | Current Version | Previous Version | Text Only | Print | Product List | Glossary On
Versions: 1 2 3 4 5 6 7 8 9 10 11 12 13 14 15 16 17
000
FTUS46 KPQR 210520
TAFONP
TAF
KONP 210520Z 2106/2206 19013KT P6SM VCSH SCT015 BKN050
     FM210900 18018G29KT 5SM -RA OVC040
     FM211200 18035G45KT 4SM RA OVC015
     FM211700 20029G36KT 2SM RA OVC012
     FM220000 19035G45KT 2SM -RA BR OVC007=

USA.gov is the U.S. government's official web portal to all federal, state and local government web resources and services.